createdAt,value
2023-11-12T00:00:49.664Z,15.88
2023-11-12T00:03:17.860Z,12.48
2023-11-12T00:05:45.322Z,11.87
2023-11-12T00:08:12.661Z,11.57
2023-11-12T00:10:41.144Z,12.32
2023-11-12T00:13:08.813Z,13.65
2023-11-12T00:15:36.119Z,12.05
2023-11-12T00:18:03.690Z,12.25
2023-11-12T00:20:31.001Z,12.75
2023-11-12T00:23:00.789Z,13.77
2023-11-12T00:25:28.155Z,12.45
2023-11-12T00:27:55.851Z,12.02
2023-11-12T00:30:23.175Z,12.30
2023-11-12T00:32:50.534Z,12.13
2023-11-12T00:35:18.071Z,11.60
2023-11-12T00:37:45.574Z,12.25
2023-11-12T00:40:15.183Z,11.73
2023-11-12T00:42:42.621Z,11.23
2023-11-12T00:45:10.203Z,14.02
2023-11-12T00:47:37.546Z,12.75
2023-11-12T00:50:05.032Z,12.32
2023-11-12T00:52:32.560Z,12.63
2023-11-12T00:55:00.303Z,13.63
2023-11-12T00:57:27.561Z,13.82
2023-11-12T00:59:55.686Z,13.55
2023-11-12T01:02:23.035Z,14.02
2023-11-12T01:04:50.472Z,14.75
2023-11-12T01:07:17.785Z,14.32
2023-11-12T01:09:46.801Z,14.20
2023-11-12T01:12:14.544Z,12.63
2023-11-12T01:14:41.899Z,14.20
2023-11-12T01:17:09.248Z,12.93
2023-11-12T01:19:36.518Z,12.35
2023-11-12T01:22:04.484Z,12.82
2023-11-12T01:24:32.138Z,11.35
2023-11-12T01:27:00.037Z,13.65
2023-11-12T01:29:28.454Z,13.40
2023-11-12T01:31:55.727Z,9.95
2023-11-12T01:34:23.575Z,12.23
2023-11-12T01:36:50.891Z,12.45
2023-11-12T01:39:18.822Z,12.52
2023-11-12T01:41:46.156Z,12.60
2023-11-12T01:44:13.426Z,11.68
2023-11-12T01:46:40.827Z,11.90
2023-11-12T01:49:08.185Z,11.40
2023-11-12T01:51:35.586Z,12.43
2023-11-12T01:54:03.410Z,11.55
2023-11-12T01:56:31.079Z,12.70
2023-11-12T01:58:59.694Z,12.35
2023-11-12T02:01:27.220Z,13.02
2023-11-12T02:03:55.640Z,12.38
2023-11-12T02:06:25.635Z,12.32
2023-11-12T02:08:53.138Z,12.07
2023-11-12T02:11:21.127Z,12.20
2023-11-12T02:13:48.450Z,10.50
2023-11-12T02:16:16.265Z,11.48
2023-11-12T02:18:47.779Z,11.80
2023-11-12T02:21:15.253Z,11.45
2023-11-12T02:23:42.554Z,12.13
2023-11-12T02:26:09.981Z,10.50
2023-11-12T02:28:37.239Z,12.40
2023-11-12T02:31:05.080Z,11.93
2023-11-12T02:33:32.647Z,12.73
2023-11-12T02:36:00.030Z,13.93
2023-11-12T02:38:27.269Z,12.35
2023-11-12T02:40:55.344Z,13.32
2023-11-12T02:43:22.936Z,13.65
2023-11-12T02:45:50.467Z,13.40
2023-11-12T02:48:18.624Z,14.57
2023-11-12T02:50:46.146Z,15.18
2023-11-12T02:53:13.641Z,15.60
2023-11-12T02:55:41.071Z,14.30
2023-11-12T02:58:08.576Z,14.95
2023-11-12T03:00:36.574Z,14.18
2023-11-12T03:03:04.216Z,15.43
2023-11-12T03:05:34.506Z,13.93
2023-11-12T03:08:02.304Z,14.27
2023-11-12T03:10:29.717Z,15.43
2023-11-12T03:12:57.139Z,14.77
2023-11-12T03:15:25.359Z,15.88
2023-11-12T03:17:53.752Z,13.85
2023-11-12T03:20:21.473Z,15.97
2023-11-12T03:22:49.011Z,16.65
2023-11-12T03:25:16.468Z,16.92
2023-11-12T03:27:43.986Z,16.40
2023-11-12T03:30:14.069Z,14.93
2023-11-12T03:32:41.717Z,15.65
2023-11-12T03:35:09.662Z,16.42
2023-11-12T03:37:38.878Z,16.95
2023-11-12T03:40:06.622Z,16.43
2023-11-12T03:42:34.035Z,15.10
2023-11-12T03:45:01.416Z,16.83
2023-11-12T03:47:28.707Z,15.88
2023-11-12T03:49:55.989Z,16.08
2023-11-12T03:52:23.568Z,17.35
2023-11-12T03:54:50.899Z,17.20
2023-11-12T03:57:19.996Z,15.60
2023-11-12T03:59:52.459Z,17.25
2023-11-12T04:02:21.941Z,17.23
2023-11-12T04:04:49.472Z,16.67
2023-11-12T04:07:17.299Z,15.27
2023-11-12T04:09:44.786Z,15.48
2023-11-12T04:12:12.777Z,15.70
2023-11-12T04:14:40.154Z,17.55
2023-11-12T04:17:07.522Z,16.15
2023-11-12T04:19:34.760Z,16.25
2023-11-12T04:22:02.179Z,18.05
2023-11-12T04:24:29.820Z,16.50
2023-11-12T04:26:57.462Z,15.73
2023-11-12T04:29:24.740Z,16.42
2023-11-12T04:31:52.053Z,14.80
2023-11-12T04:34:19.316Z,16.17
2023-11-12T04:36:48.151Z,15.65
2023-11-12T04:41:43.181Z,13.93
2023-11-12T04:44:10.428Z,16.63
2023-11-12T04:46:39.033Z,16.23
2023-11-12T04:49:06.404Z,16.85
2023-11-12T04:51:34.329Z,14.20
2023-11-12T04:54:01.746Z,14.35
2023-11-12T04:56:29.010Z,15.40
2023-11-12T04:58:56.479Z,14.23
2023-11-12T05:01:23.800Z,15.85
2023-11-12T05:03:51.154Z,14.98
2023-11-12T05:06:18.521Z,13.70
2023-11-12T05:08:45.792Z,14.70
2023-11-12T05:11:13.084Z,13.73
2023-11-12T05:13:41.379Z,14.15
2023-11-12T05:16:08.685Z,13.07
2023-11-12T05:18:36.035Z,14.60
2023-11-12T05:21:03.331Z,15.68
2023-11-12T05:23:30.702Z,15.75
2023-11-12T05:26:01.057Z,15.95
2023-11-12T05:28:30.993Z,17.02
2023-11-12T05:30:58.333Z,16.60
2023-11-12T05:33:25.751Z,16.75
2023-11-12T05:35:53.000Z,17.70
2023-11-12T05:38:20.257Z,17.25
2023-11-12T05:40:47.742Z,18.42
2023-11-12T05:43:15.082Z,18.77
2023-11-12T05:45:42.471Z,19.05
2023-11-12T05:48:11.877Z,21.27
2023-11-12T05:50:39.675Z,19.90
2023-11-12T05:53:06.937Z,21.33
2023-11-12T05:55:34.265Z,19.58
2023-11-12T05:58:01.628Z,20.08
2023-11-12T06:00:28.895Z,22.00
2023-11-12T06:02:56.902Z,20.02
2023-11-12T06:05:24.674Z,20.85
2023-11-12T06:07:51.930Z,21.10
2023-11-12T06:10:19.246Z,21.58
2023-11-12T06:12:46.624Z,21.70
2023-11-12T06:15:13.937Z,22.25
2023-11-12T06:17:41.353Z,21.38
2023-11-12T06:20:09.015Z,21.35
2023-11-12T06:22:36.330Z,22.80
2023-11-12T06:25:03.783Z,22.90
2023-11-12T06:27:31.117Z,23.70
2023-11-12T06:29:59.032Z,22.35
2023-11-12T06:32:26.378Z,22.60
2023-11-12T06:34:53.772Z,25.23
2023-11-12T06:37:21.037Z,23.23
2023-11-12T06:39:48.389Z,24.20
2023-11-12T06:42:16.008Z,23.80
2023-11-12T06:44:43.453Z,24.77
2023-11-12T06:47:10.785Z,22.65
2023-11-12T06:49:38.068Z,26.17
2023-11-12T06:52:05.571Z,26.17
2023-11-12T06:54:32.927Z,25.42
2023-11-12T06:57:00.914Z,24.55
2023-11-12T06:59:29.133Z,23.05
2023-11-12T07:01:56.405Z,25.07
2023-11-12T07:04:23.674Z,25.15
2023-11-12T07:07:01.863Z,24.75
2023-11-12T07:09:36.972Z,28.13
2023-11-12T07:12:05.785Z,28.50
2023-11-12T07:14:33.133Z,28.35
2023-11-12T07:17:00.399Z,28.30
2023-11-12T07:19:27.693Z,29.30
2023-11-12T07:21:55.606Z,29.13
2023-11-12T07:24:22.976Z,29.55
2023-11-12T07:26:50.432Z,30.05
2023-11-12T07:29:17.768Z,28.30
2023-11-12T07:31:45.169Z,30.83
2023-11-12T07:34:12.473Z,27.85
2023-11-12T07:36:39.756Z,29.77
2023-11-12T07:39:08.642Z,30.27
2023-11-12T07:41:35.963Z,29.27
2023-11-12T07:44:03.875Z,30.55
2023-11-12T07:46:31.177Z,30.15
2023-11-12T07:48:58.998Z,31.02
2023-11-12T07:51:26.319Z,29.80
2023-11-12T07:53:53.662Z,30.35
2023-11-12T07:56:24.689Z,30.73
2023-11-12T07:58:55.260Z,30.45
2023-11-12T08:01:22.588Z,32.80
2023-11-12T08:03:49.927Z,29.52
2023-11-12T08:06:17.539Z,31.30
2023-11-12T08:08:45.136Z,31.42
2023-11-12T08:11:12.643Z,31.58
2023-11-12T08:13:40.296Z,33.22
2023-11-12T08:16:09.241Z,33.38
2023-11-12T08:18:36.745Z,32.03
2023-11-12T08:21:04.358Z,32.70
2023-11-12T08:23:31.766Z,31.77
2023-11-12T08:26:03.151Z,36.00
2023-11-12T08:28:30.984Z,36.95
2023-11-12T08:30:59.041Z,41.10
2023-11-12T08:33:26.372Z,43.38
2023-11-12T08:35:53.677Z,47.28
2023-11-12T08:38:21.089Z,49.63
2023-11-12T08:40:48.427Z,48.72
2023-11-12T08:43:16.080Z,48.33
2023-11-12T08:45:44.016Z,50.53
2023-11-12T08:48:11.400Z,49.78
2023-11-12T08:50:38.724Z,54.75
2023-11-12T08:53:06.022Z,54.45
2023-11-12T08:55:33.395Z,58.47
2023-11-12T08:58:00.874Z,60.70
2023-11-12T09:00:28.284Z,61.53
2023-11-12T09:02:55.657Z,67.63
2023-11-12T09:05:23.018Z,69.10
2023-11-12T09:07:51.307Z,69.28
2023-11-12T09:10:19.170Z,64.47
2023-11-12T09:12:46.537Z,63.38
2023-11-12T09:15:14.699Z,63.58
2023-11-12T09:17:42.077Z,61.70
2023-11-12T09:20:14.758Z,62.30
2023-11-12T09:22:42.224Z,54.53
2023-11-12T09:25:12.100Z,51.85
2023-11-12T09:27:39.818Z,47.55
2023-11-12T09:30:09.517Z,43.40
2023-11-12T09:32:40.489Z,44.95
2023-11-12T09:35:09.443Z,37.85
2023-11-12T09:37:37.097Z,39.50
2023-11-12T09:40:11.319Z,35.45
2023-11-12T09:42:45.217Z,33.88
2023-11-12T09:45:13.348Z,34.28
2023-11-12T09:47:50.130Z,31.02
2023-11-12T09:50:18.296Z,28.33
2023-11-12T09:52:47.778Z,26.75
2023-11-12T09:55:18.699Z,26.48
2023-11-12T09:57:47.279Z,26.63
2023-11-12T10:00:14.996Z,26.85
2023-11-12T10:02:42.427Z,25.67
2023-11-12T10:05:13.870Z,25.23
2023-11-12T10:07:41.493Z,22.40
2023-11-12T10:10:24.411Z,22.75
2023-11-12T10:12:54.054Z,26.10
2023-11-12T10:15:28.678Z,23.35
2023-11-12T10:17:59.750Z,24.38
2023-11-12T10:20:50.557Z,25.48
2023-11-12T10:23:32.546Z,24.77
2023-11-12T10:26:00.933Z,25.60
2023-11-12T10:28:35.656Z,25.45
2023-11-12T10:31:03.090Z,27.23
2023-11-12T10:33:30.523Z,24.88
2023-11-12T10:35:58.226Z,24.60
2023-11-12T10:38:25.562Z,21.67
2023-11-12T10:40:59.927Z,21.75
2023-11-12T10:43:28.817Z,24.33
2023-11-12T10:45:59.646Z,23.88
2023-11-12T10:48:36.675Z,22.98
2023-11-12T10:51:08.213Z,22.58
2023-11-12T10:53:39.547Z,21.33
2023-11-12T10:56:07.771Z,21.35
2023-11-12T10:58:36.535Z,21.93
2023-11-12T11:01:06.184Z,22.20
2023-11-12T11:03:34.819Z,22.27
2023-11-12T11:06:09.693Z,21.67
2023-11-12T11:08:37.345Z,21.42
2023-11-12T11:11:09.323Z,22.25
2023-11-12T11:13:38.560Z,22.33
2023-11-12T11:16:06.621Z,21.50
2023-11-12T11:18:35.025Z,21.50
2023-11-12T11:21:12.268Z,22.95
2023-11-12T11:23:42.959Z,21.92
2023-11-12T11:26:29.528Z,22.42
2023-11-12T11:29:06.199Z,21.80
2023-11-12T11:31:33.614Z,22.63
2023-11-12T11:34:01.553Z,24.33
2023-11-12T11:36:29.256Z,23.75
2023-11-12T11:39:12.384Z,24.85
2023-11-12T11:41:55.551Z,26.13
2023-11-12T11:44:45.572Z,26.65
2023-11-12T11:47:20.343Z,27.45
2023-11-12T11:49:59.944Z,29.20
2023-11-12T11:52:28.988Z,26.80
2023-11-12T11:57:27.820Z,23.48
2023-11-12T11:59:55.709Z,25.55
2023-11-12T12:02:24.762Z,23.40
2023-11-12T12:04:53.126Z,25.77
2023-11-12T12:07:24.577Z,25.55
2023-11-12T12:09:52.418Z,26.45
2023-11-12T12:12:20.395Z,26.17
2023-11-12T12:14:48.105Z,25.85
2023-11-12T12:17:15.347Z,25.73
2023-11-12T12:19:42.751Z,25.25
2023-11-12T12:22:10.721Z,26.73
2023-11-12T12:24:39.480Z,27.15
2023-11-12T12:27:10.764Z,21.95
2023-11-12T12:29:39.319Z,22.67
2023-11-12T12:32:14.972Z,23.40
2023-11-12T12:34:44.543Z,24.00
2023-11-12T12:37:11.951Z,22.60
2023-11-12T12:39:54.656Z,24.33
2023-11-12T12:42:24.975Z,22.60
2023-11-12T12:44:53.139Z,23.65
2023-11-12T12:47:30.565Z,23.50
2023-11-12T12:49:59.652Z,25.08
2023-11-12T12:54:54.633Z,21.60
2023-11-12T12:57:25.816Z,21.85
2023-11-12T12:59:53.197Z,21.02
2023-11-12T13:02:21.086Z,21.10
2023-11-12T13:04:51.775Z,23.73
2023-11-12T13:07:20.712Z,21.30
2023-11-12T13:09:48.081Z,21.30
2023-11-12T13:12:15.388Z,21.02
2023-11-12T13:14:42.679Z,22.08
2023-11-12T13:17:10.074Z,20.48
2023-11-12T13:19:37.523Z,20.58
2023-11-12T13:22:05.452Z,18.60
2023-11-12T13:24:35.325Z,17.38
2023-11-12T13:27:03.958Z,17.45
2023-11-12T13:29:31.581Z,19.00
2023-11-12T13:32:00.475Z,18.23
2023-11-12T13:34:28.219Z,17.60
2023-11-12T13:36:55.762Z,19.35
2023-11-12T13:39:23.721Z,18.50
2023-11-12T13:41:51.362Z,21.45
2023-11-12T13:44:23.490Z,20.10
2023-11-12T13:46:52.426Z,19.17
2023-11-12T13:49:23.464Z,20.85
2023-11-12T13:51:56.728Z,20.88
2023-11-12T13:54:25.089Z,21.40
2023-11-12T13:56:53.304Z,21.20
2023-11-12T13:59:22.100Z,20.88
2023-11-12T14:01:50.583Z,20.77
2023-11-12T14:04:18.032Z,20.20
2023-11-12T14:06:45.426Z,22.27
2023-11-12T14:09:13.205Z,23.38
2023-11-12T14:11:40.870Z,20.75
2023-11-12T14:14:08.805Z,22.25
2023-11-12T14:16:40.427Z,20.10
2023-11-12T14:19:11.958Z,18.50
2023-11-12T14:21:43.310Z,17.98
2023-11-12T14:24:13.846Z,18.52
2023-11-12T14:26:43.888Z,20.40
2023-11-12T14:29:14.334Z,21.85
2023-11-12T14:31:41.681Z,20.50
2023-11-12T14:34:14.047Z,23.20
2023-11-12T14:36:44.311Z,22.50
2023-11-12T14:39:12.253Z,23.23
2023-11-12T14:41:42.854Z,21.48
2023-11-12T14:44:10.802Z,20.90
2023-11-12T14:46:39.540Z,19.98
2023-11-12T14:49:07.907Z,22.65
2023-11-12T14:51:37.577Z,16.50
2023-11-12T14:54:06.618Z,21.98
2023-11-12T14:56:34.752Z,22.50
2023-11-12T14:59:03.467Z,19.75
2023-11-12T15:01:30.764Z,19.90
2023-11-12T15:03:58.124Z,24.17
2023-11-12T15:06:26.067Z,21.23
2023-11-12T15:08:53.480Z,20.20
2023-11-12T15:11:20.870Z,18.48
2023-11-12T15:13:48.537Z,16.85
2023-11-12T15:16:20.028Z,17.80
2023-11-12T15:18:47.567Z,18.77
2023-11-12T15:21:15.740Z,17.58
2023-11-12T15:23:43.164Z,20.45
2023-11-12T15:26:20.017Z,20.30
2023-11-12T15:28:50.453Z,35.72
2023-11-12T15:31:18.421Z,18.67
2023-11-12T15:33:46.360Z,21.45
2023-11-12T15:36:14.048Z,18.10
2023-11-12T15:38:41.490Z,18.52
2023-11-12T15:41:08.925Z,18.92
2023-11-12T15:43:36.361Z,21.63
2023-11-12T15:46:05.644Z,19.35
2023-11-12T15:48:33.437Z,22.35
2023-11-12T15:51:01.520Z,18.63
2023-11-12T15:53:31.666Z,17.98
2023-11-12T15:56:00.506Z,17.88
2023-11-12T15:58:28.528Z,17.38
2023-11-12T16:00:56.276Z,18.38
2023-11-12T16:03:23.743Z,16.83
2023-11-12T16:05:51.202Z,16.15
2023-11-12T16:08:18.432Z,15.27
2023-11-12T16:10:46.808Z,17.67
2023-11-12T16:13:14.129Z,16.67
2023-11-12T16:15:42.882Z,17.80
2023-11-12T16:18:10.339Z,18.40
2023-11-12T16:20:37.672Z,15.68
2023-11-12T16:23:07.497Z,16.73
2023-11-12T16:25:34.766Z,19.45
2023-11-12T16:28:02.040Z,13.82
2023-11-12T16:30:29.840Z,15.13
2023-11-12T16:32:57.448Z,14.70
2023-11-12T16:35:24.781Z,15.30
2023-11-12T16:37:53.073Z,14.00
2023-11-12T16:40:20.907Z,15.83
2023-11-12T16:42:49.860Z,16.20
2023-11-12T16:45:18.526Z,16.52
2023-11-12T16:47:46.196Z,17.60
2023-11-12T16:50:16.298Z,15.90
2023-11-12T16:52:43.545Z,21.60
2023-11-12T16:55:11.566Z,27.58
2023-11-12T16:57:39.205Z,22.37
2023-11-12T17:00:07.159Z,20.50
2023-11-12T17:02:36.305Z,21.00
2023-11-12T17:07:31.582Z,36.33
2023-11-12T17:09:59.030Z,40.22
2023-11-12T17:12:27.393Z,31.02
2023-11-12T17:15:04.397Z,22.97
2023-11-12T17:17:32.259Z,23.85
2023-11-12T17:20:00.307Z,24.45
2023-11-12T17:22:28.105Z,19.63
2023-11-12T17:24:55.962Z,23.42
2023-11-12T17:27:24.656Z,23.08
2023-11-12T17:29:52.159Z,26.30
2023-11-12T17:32:19.702Z,26.48
2023-11-12T17:34:47.191Z,23.80
2023-11-12T17:37:14.793Z,24.98
2023-11-12T17:39:42.202Z,29.50
2023-11-12T17:42:10.525Z,25.52
2023-11-12T17:44:38.337Z,27.08
2023-11-12T17:47:06.186Z,26.75
2023-11-12T17:49:33.778Z,23.25
2023-11-12T17:52:01.451Z,23.88
2023-11-12T17:54:30.127Z,26.35
2023-11-12T17:56:58.167Z,24.65
2023-11-12T17:59:25.492Z,26.02
2023-11-12T18:01:54.005Z,25.63
2023-11-12T18:04:22.636Z,24.27
2023-11-12T18:06:50.199Z,21.00
2023-11-12T18:09:19.086Z,24.42
2023-11-12T18:11:47.192Z,24.08
2023-11-12T18:14:17.648Z,25.67
2023-11-12T18:16:48.433Z,28.10
2023-11-12T18:19:16.039Z,25.58
2023-11-12T18:21:44.272Z,28.65
2023-11-12T18:24:12.944Z,35.25
2023-11-12T18:26:40.687Z,26.15
2023-11-12T18:29:08.286Z,27.77
2023-11-12T18:31:39.273Z,29.33
2023-11-12T18:34:09.769Z,43.50
2023-11-12T18:36:37.555Z,29.83
2023-11-12T18:39:07.700Z,27.02
2023-11-12T18:41:38.605Z,27.73
2023-11-12T18:44:06.804Z,26.52
2023-11-12T18:46:37.045Z,27.85
2023-11-12T18:49:05.645Z,24.00
2023-11-12T18:51:33.492Z,26.67
2023-11-12T18:54:03.652Z,28.45
2023-11-12T18:57:01.873Z,26.58
2023-11-12T18:59:30.428Z,26.67
2023-11-12T19:01:58.492Z,28.25
2023-11-12T19:04:26.903Z,29.70
2023-11-12T19:06:54.917Z,29.75
2023-11-12T19:09:22.498Z,38.47
2023-11-12T19:11:54.107Z,32.78
2023-11-12T19:14:23.810Z,33.00
2023-11-12T19:16:55.274Z,36.13
2023-11-12T19:19:26.308Z,38.47
2023-11-12T19:21:57.907Z,36.70
2023-11-12T19:24:26.471Z,36.80
2023-11-12T19:26:54.813Z,32.45
2023-11-12T19:29:22.674Z,32.20
2023-11-12T19:31:50.419Z,32.60
2023-11-12T19:34:18.189Z,36.38
2023-11-12T19:36:47.547Z,33.20
2023-11-12T19:39:15.770Z,31.35
2023-11-12T19:41:44.710Z,38.27
2023-11-12T19:44:12.968Z,34.25
2023-11-12T19:46:46.111Z,31.77
2023-11-12T19:49:17.038Z,35.20
2023-11-12T19:51:45.630Z,33.60
2023-11-12T19:54:13.616Z,35.87
2023-11-12T19:56:41.642Z,32.30
2023-11-12T19:59:09.998Z,30.50
2023-11-12T20:01:40.816Z,31.27
2023-11-12T20:04:11.706Z,31.25
2023-11-12T20:06:40.136Z,32.25
2023-11-12T20:09:08.141Z,33.22
2023-11-12T20:11:35.734Z,35.47
2023-11-12T20:14:03.764Z,33.90
2023-11-12T20:16:31.365Z,32.33
2023-11-12T20:19:03.470Z,31.95
2023-11-12T20:21:32.334Z,37.03
2023-11-12T20:24:05.215Z,37.47
2023-11-12T20:26:33.012Z,33.13
2023-11-12T20:29:11.113Z,30.48
2023-11-12T20:31:42.993Z,31.83
2023-11-12T20:34:14.404Z,30.83
2023-11-12T20:36:42.200Z,33.67
2023-11-12T20:39:17.078Z,38.17
2023-11-12T20:41:46.158Z,34.90
2023-11-12T20:46:46.121Z,26.10
2023-11-12T20:49:19.027Z,36.03
2023-11-12T20:51:49.775Z,37.30
2023-11-12T20:54:19.672Z,33.78
2023-11-12T20:59:16.984Z,30.10
2023-11-12T21:04:13.555Z,41.78
2023-11-12T21:06:44.015Z,42.28
2023-11-12T21:09:12.235Z,30.40
2023-11-12T21:11:48.190Z,31.88
2023-11-12T21:14:17.621Z,30.65
2023-11-12T21:16:45.068Z,28.67
2023-11-12T21:19:13.297Z,32.53
2023-11-12T21:21:40.812Z,28.60
2023-11-12T21:24:10.731Z,29.05
2023-11-12T21:26:41.090Z,31.90
2023-11-12T21:29:10.529Z,28.55
2023-11-12T21:31:39.121Z,31.17
2023-11-12T21:34:06.880Z,31.80
2023-11-12T21:36:34.725Z,30.50
2023-11-12T21:39:02.475Z,33.05
2023-11-12T21:41:31.131Z,34.10
2023-11-12T21:43:59.082Z,39.45
2023-11-12T21:46:28.140Z,31.52
2023-11-12T21:48:56.179Z,36.22
2023-11-12T21:51:24.077Z,35.85
2023-11-12T21:53:51.941Z,36.55
2023-11-12T21:56:19.674Z,32.10
2023-11-12T21:58:47.135Z,34.05
2023-11-12T22:01:14.924Z,34.20
2023-11-12T22:03:42.886Z,31.40
2023-11-12T22:06:12.054Z,31.40
2023-11-12T22:08:46.373Z,33.15
2023-11-12T22:11:15.107Z,33.40
2023-11-12T22:13:43.726Z,30.05
2023-11-12T22:16:12.707Z,31.25
2023-11-12T22:18:44.677Z,30.88
2023-11-12T22:21:13.965Z,30.90
2023-11-12T22:23:43.638Z,29.95
2023-11-12T22:26:12.749Z,33.72
2023-11-12T22:28:41.033Z,31.88
2023-11-12T22:31:10.963Z,35.30
2023-11-12T22:33:39.290Z,30.45
2023-11-12T22:36:10.930Z,32.40
2023-11-12T22:38:39.046Z,30.50
2023-11-12T22:41:06.807Z,31.83
2023-11-12T22:43:34.422Z,31.25
2023-11-12T22:46:04.105Z,29.83
2023-11-12T22:48:33.278Z,31.10
2023-11-12T22:51:01.119Z,29.35
2023-11-12T22:53:30.018Z,23.67
2023-11-12T22:55:57.453Z,31.67
2023-11-12T22:58:25.397Z,33.25
2023-11-12T23:01:00.906Z,31.33
2023-11-12T23:03:30.242Z,31.98
2023-11-12T23:08:28.105Z,31.92
2023-11-12T23:10:58.820Z,29.73
2023-11-12T23:13:28.452Z,29.30
2023-11-12T23:15:57.943Z,31.55
2023-11-12T23:18:25.503Z,29.10
2023-11-12T23:20:59.293Z,28.63
2023-11-12T23:23:33.895Z,27.60
2023-11-12T23:26:03.329Z,29.70
2023-11-12T23:28:35.146Z,30.15
2023-11-12T23:31:03.391Z,30.15
2023-11-12T23:33:30.983Z,27.75
2023-11-12T23:35:59.815Z,28.83
2023-11-12T23:38:30.074Z,26.80
2023-11-12T23:40:57.758Z,31.15
2023-11-12T23:43:26.029Z,26.45
2023-11-12T23:45:53.445Z,29.57
2023-11-12T23:48:20.796Z,27.85
2023-11-12T23:50:48.244Z,26.45
2023-11-12T23:53:20.787Z,26.25
2023-11-12T23:55:49.484Z,28.02
2023-11-12T23:58:17.227Z,27.35
